Time;durP1;ratioP1;P1;durP2;ratioP2;P2;SDS_P1;SDS_P2;PMS_P1;PMS_P2;Temp;Humidity;BMP_temperature;BMP_pressure;BME280_temperature;BME280_humidity;BME280_pressure;Samples;Min_cycle;Max_cycle;Signal;HPM_P1;HPM_P2
2021/06/03 00:00:30;;;;;;;2.44;1.34;;;;;;;16.42;77.69;99548.75;1991242;81;20735;-74
2021/06/03 00:03:35;;;;;;;5.34;1.10;;;;;;;16.41;77.95;99547.03;1992002;81;20696;-74
2021/06/03 00:06:38;;;;;;;4.55;1.40;;;;;;;16.39;77.93;99556.72;1992242;81;20171;-75
2021/06/03 00:09:42;;;;;;;3.58;1.36;;;;;;;16.36;78.09;99548.94;1992430;81;20182;-74
2021/06/03 00:12:44;;;;;;;3.58;1.01;;;;;;;16.35;78.25;99549.81;1991763;81;20681;-75
2021/06/03 00:15:48;;;;;;;5.20;1.06;;;;;;;16.32;78.23;99556.84;1992088;78;20866;-74
2021/06/03 00:18:51;;;;;;;1.58;1.08;;;;;;;16.32;78.35;99558.59;1992316;81;20175;-74
2021/06/03 00:21:54;;;;;;;4.71;1.10;;;;;;;16.29;78.49;99556.06;1991886;81;20187;-74
2021/06/03 00:24:57;;;;;;;4.35;1.10;;;;;;;16.27;78.59;99558.72;1992473;81;20656;-74
2021/06/03 00:28:00;;;;;;;3.39;1.20;;;;;;;16.26;78.63;99557.00;1991536;81;20171;-74
2021/06/03 00:31:03;;;;;;;2.39;1.20;;;;;;;16.26;78.77;99558.75;1990682;79;22283;-74
2021/06/03 00:34:06;;;;;;;2.83;0.96;;;;;;;16.31;79.12;99556.88;1988540;81;20741;-74
2021/06/03 00:37:08;;;;;;;1.86;0.90;;;;;;;16.30;79.12;99557.78;1992051;81;20585;-74
2021/06/03 00:40:13;;;;;;;3.72;1.05;;;;;;;16.31;79.41;99551.63;1991972;81;20296;-74
2021/06/03 00:43:15;;;;;;;3.26;1.09;;;;;;;16.30;79.52;99552.53;1992588;81;20171;-74
2021/06/03 00:46:18;;;;;;;1.89;0.82;;;;;;;16.30;79.25;99553.41;1990084;79;22158;-74
2021/06/03 00:49:21;;;;;;;3.09;1.14;;;;;;;16.30;79.56;99556.03;1991782;81;20324;-74
2021/06/03 00:52:24;;;;;;;1.84;0.90;;;;;;;16.32;79.24;99553.34;1991403;81;20622;-74
2021/06/03 00:55:27;;;;;;;2.04;1.10;;;;;;;16.32;79.44;99562.06;1991532;81;20746;-74
2021/06/03 00:58:30;;;;;;;1.44;1.10;;;;;;;16.32;79.08;99559.47;1991644;81;20646;-74
2021/06/03 01:01:33;;;;;;;1.20;0.90;;;;;;;16.36;78.74;99559.41;1990566;79;21555;-74
2021/06/03 01:04:35;;;;;;;1.16;0.93;;;;;;;16.32;78.71;99562.06;1991041;81;20654;-74
2021/06/03 01:07:38;;;;;;;3.20;0.96;;;;;;;16.33;79.01;99565.56;1991318;81;20248;-74
2021/06/03 01:11:01;;;;;;;1.51;0.95;;;;;;;16.28;78.96;99559.56;1991555;81;20335;-75
2021/06/03 01:14:09;;;;;;;1.11;0.95;;;;;;;16.26;78.71;99559.63;1991733;81;21008;-74
2021/06/03 01:17:12;;;;;;;2.53;1.29;;;;;;;16.22;79.31;99570.22;1990663;79;22045;-74
2021/06/03 01:20:17;;;;;;;1.58;1.01;;;;;;;16.19;79.57;99570.31;1991878;81;20776;-74
2021/06/03 01:23:32;;;;;;;0.84;0.84;;;;;;;16.18;79.46;99556.34;1992177;81;20569;-73
2021/06/03 01:26:35;;;;;;;2.11;1.09;;;;;;;16.17;79.34;99562.47;1991918;81;20179;-74
2021/06/03 01:29:43;;;;;;;1.84;1.26;;;;;;;16.14;79.37;99562.53;1991636;81;20732;-75
2021/06/03 01:33:03;;;;;;;3.94;1.00;;;;;;;16.13;79.69;99567.81;1990029;78;22892;-75
2021/06/03 01:36:08;;;;;;;1.09;1.00;;;;;;;16.10;79.67;99565.28;1991621;81;20244;-74
2021/06/03 01:39:11;;;;;;;2.99;1.10;;;;;;;16.11;79.88;99565.22;1991196;81;20875;-74
2021/06/03 01:42:16;;;;;;;1.44;0.89;;;;;;;16.07;79.80;99563.59;1990857;81;20191;-74
2021/06/03 01:45:19;;;;;;;2.51;0.90;;;;;;;16.04;80.13;99563.66;1990994;81;22074;-74
2021/06/03 01:48:22;;;;;;;1.42;0.91;;;;;;;16.00;80.33;99564.66;1991175;81;20202;-74
2021/06/03 01:51:26;;;;;;;5.88;1.14;;;;;;;15.92;80.46;99563.94;1991318;81;20269;-74
2021/06/03 01:54:29;;;;;;;2.72;0.99;;;;;;;15.94;80.76;99556.91;1991015;81;20219;-74
2021/06/03 01:57:32;;;;;;;4.56;1.25;;;;;;;15.92;80.73;99556.09;1991688;81;20210;-74
2021/06/03 02:00:35;;;;;;;4.72;1.23;;;;;;;15.91;80.86;99559.59;1990405;78;22540;-74
2021/06/03 02:03:38;;;;;;;2.55;1.10;;;;;;;15.87;81.06;99558.81;1992755;81;20755;-74
2021/06/03 02:06:41;;;;;;;1.49;1.00;;;;;;;15.87;81.38;99556.22;1996702;81;20200;-74
2021/06/03 02:09:44;;;;;;;3.04;1.19;;;;;;;15.85;81.49;99563.25;1993515;81;20464;-75
2021/06/03 02:12:49;;;;;;;0.90;0.90;;;;;;;15.86;81.65;99562.34;1993043;81;20159;-74
2021/06/03 02:16:05;;;;;;;1.46;0.90;;;;;;;15.85;81.67;99565.00;1992630;78;21618;-74
2021/06/03 02:19:22;;;;;;;3.83;1.08;;;;;;;15.83;81.95;99567.66;1993962;81;20299;-74
2021/06/03 02:22:25;;;;;;;2.05;1.00;;;;;;;15.87;81.98;99573.69;1993188;81;20207;-74
2021/06/03 02:25:29;;;;;;;1.10;1.00;;;;;;;15.89;81.73;99564.88;1993584;81;20195;-74
2021/06/03 02:28:35;;;;;;;2.05;0.90;;;;;;;15.95;81.35;99571.72;1994168;81;20155;-74
2021/06/03 02:31:39;;;;;;;1.55;1.04;;;;;;;16.00;81.06;99565.50;1992903;78;28976;-74
2021/06/03 02:34:44;;;;;;;1.27;0.90;;;;;;;16.02;80.84;99576.81;1994021;81;20175;-74
2021/06/03 02:37:48;;;;;;;4.30;1.16;;;;;;;16.00;80.92;99575.13;1993614;81;20759;-74
2021/06/03 02:40:53;;;;;;;1.76;0.96;;;;;;;15.98;81.09;99582.16;1993226;81;20218;-74
2021/06/03 02:43:56;;;;;;;4.31;1.00;;;;;;;15.92;81.21;99579.66;1993594;81;20179;-75
2021/06/03 02:46:59;;;;;;;1.42;0.89;;;;;;;15.89;81.44;99577.13;1992528;81;23533;-74
2021/06/03 02:50:03;;;;;;;1.88;0.98;;;;;;;15.85;81.57;99578.94;1993554;81;20195;-74
2021/06/03 02:53:06;;;;;;;3.04;1.00;;;;;;;15.85;81.98;99576.34;1993733;81;20254;-75
2021/06/03 02:56:10;;;;;;;1.42;0.95;;;;;;;15.84;82.15;99579.00;1993267;81;20171;-74
2021/06/03 02:59:13;;;;;;;2.80;0.89;;;;;;;15.83;82.27;99580.75;1993271;81;20289;-74
2021/06/03 03:02:15;;;;;;;1.40;0.80;;;;;;;15.82;82.42;99580.78;1992894;79;20561;-74
2021/06/03 03:05:19;;;;;;;0.85;0.85;;;;;;;15.83;82.50;99578.13;1992692;81;20216;-74
2021/06/03 03:08:22;;;;;;;1.63;1.05;;;;;;;15.84;82.37;99574.63;1992059;81;20217;-74
2021/06/03 03:11:24;;;;;;;3.05;1.04;;;;;;;15.87;82.05;99571.91;1992747;81;20218;-74
2021/06/03 03:14:27;;;;;;;1.36;1.00;;;;;;;15.86;82.10;99582.44;1992360;81;20200;-74
2021/06/03 03:17:30;;;;;;;3.46;1.10;;;;;;;15.87;81.93;99581.53;1990599;79;22092;-75
2021/06/03 03:20:34;;;;;;;3.75;1.09;;;;;;;15.88;81.96;99583.25;1992826;81;20175;-74
2021/06/03 03:23:37;;;;;;;1.09;0.93;;;;;;;15.87;81.99;99578.91;1992106;81;20428;-74
2021/06/03 03:26:40;;;;;;;2.09;1.05;;;;;;;15.84;82.11;99581.59;1992180;81;20226;-74
2021/06/03 03:29:43;;;;;;;0.96;0.86;;;;;;;15.83;82.34;99579.88;1995281;81;20186;-74
2021/06/03 03:32:46;;;;;;;2.74;0.82;;;;;;;15.80;82.56;99579.94;1991445;78;20839;-74
2021/06/03 03:35:49;;;;;;;4.39;0.99;;;;;;;15.76;82.71;99586.13;1995001;81;20176;-74
2021/06/03 03:38:52;;;;;;;2.65;1.21;;;;;;;15.74;82.76;99587.94;1991933;81;20192;-74
2021/06/03 03:41:54;;;;;;;1.92;1.10;;;;;;;15.75;82.84;99587.03;1992125;81;20222;-74
2021/06/03 03:44:57;;;;;;;2.13;0.88;;;;;;;15.82;82.56;99581.66;1992006;81;20936;-74
2021/06/03 03:48:01;;;;;;;2.60;1.06;;;;;;;15.84;82.33;99579.84;1991991;78;20179;-75
2021/06/03 03:51:04;;;;;;;1.73;0.89;;;;;;;15.78;82.40;99587.81;1991901;81;20187;-74
2021/06/03 03:54:07;;;;;;;2.05;1.01;;;;;;;15.73;82.54;99589.69;1991886;81;20195;-75
2021/06/03 03:57:10;;;;;;;0.91;0.81;;;;;;;15.66;82.75;99583.75;1992124;81;20167;-75
2021/06/03 04:00:16;;;;;;;2.14;0.80;;;;;;;15.62;83.03;99583.84;1990473;81;20269;-75
2021/06/03 04:03:19;;;;;;;2.69;1.00;;;;;;;15.59;83.31;99592.59;1991862;79;31553;-75
2021/06/03 04:06:22;;;;;;;0.84;0.84;;;;;;;15.56;83.41;99600.50;1991803;81;20634;-75
2021/06/03 04:09:27;;;;;;;2.56;0.90;;;;;;;15.54;83.58;99599.66;1992002;81;20167;-76
2021/06/03 04:12:30;;;;;;;1.64;1.00;;;;;;;15.53;83.81;99602.31;1992690;81;20305;-75
2021/06/03 04:15:32;;;;;;;3.10;1.00;;;;;;;15.58;83.75;99613.53;1990662;79;21730;-75
2021/06/03 04:18:35;;;;;;;1.75;1.20;;;;;;;15.63;83.82;99612.59;1991851;81;20175;-75
2021/06/03 04:21:38;;;;;;;3.95;1.10;;;;;;;15.71;83.62;99617.66;1992020;81;20241;-76
2021/06/03 04:24:41;;;;;;;2.01;1.13;;;;;;;15.81;83.20;99618.34;1991904;81;20692;-76
2021/06/03 04:27:43;;;;;;;1.56;1.10;;;;;;;15.87;83.40;99623.44;1990994;81;20175;-75
2021/06/03 04:30:46;;;;;;;2.01;1.13;;;;;;;15.94;83.24;99620.63;1990781;79;24661;-75
2021/06/03 04:33:49;;;;;;;1.63;1.00;;;;;;;16.05;82.88;99616.91;1991980;81;20654;-75
2021/06/03 04:36:51;;;;;;;1.52;1.13;;;;;;;16.16;82.03;99618.41;1991584;81;20757;-75
2021/06/03 04:39:54;;;;;;;1.38;1.10;;;;;;;16.26;81.98;99619.88;1991944;81;20265;-75
2021/06/03 04:42:58;;;;;;;2.46;1.02;;;;;;;16.37;82.21;99618.78;1992343;81;20179;-75
2021/06/03 04:46:00;;;;;;;4.13;0.90;;;;;;;16.47;81.98;99622.88;1990518;79;25817;-76
2021/06/03 04:49:03;;;;;;;1.11;1.00;;;;;;;16.54;82.12;99629.72;1992345;81;20175;-76
2021/06/03 04:55:28;;;;;;;1.45;1.00;;;;;;;17.09;80.00;99631.81;1991886;81;20238;-76
2021/06/03 04:58:34;;;;;;;4.11;0.80;;;;;;;17.53;78.40;99635.78;1992340;81;20183;-75
2021/06/03 05:01:38;;;;;;;2.21;0.99;;;;;;;17.97;76.29;99644.19;1991071;79;22792;-75
2021/06/03 05:04:41;;;;;;;2.51;1.00;;;;;;;18.32;74.53;99644.84;1992023;81;20280;-75
2021/06/03 05:07:46;;;;;;;1.42;0.80;;;;;;;18.87;73.02;99645.69;1991611;81;20598;-76
2021/06/03 05:10:49;;;;;;;2.26;1.21;;;;;;;19.46;71.08;99642.72;1992088;81;20328;-75
2021/06/03 05:13:52;;;;;;;2.22;0.84;;;;;;;19.88;68.96;99645.53;1992799;81;20171;-75
2021/06/03 05:16:55;;;;;;;2.51;0.76;;;;;;;19.75;69.08;99639.00;1990736;81;21813;-75
2021/06/03 05:19:58;;;;;;;3.08;0.90;;;;;;;19.57;69.84;99645.84;1992231;81;20644;-75
2021/06/03 05:23:01;;;;;;;3.08;0.90;;;;;;;19.52;69.65;99648.59;1992006;81;20273;-75
2021/06/03 05:26:04;;;;;;;1.67;0.82;;;;;;;19.44;69.03;99648.03;1992016;81;20163;-76
2021/06/03 05:29:13;;;;;;;3.10;1.00;;;;;;;19.45;69.36;99652.38;1992616;81;20203;-76
2021/06/03 05:32:17;;;;;;;2.11;0.93;;;;;;;19.71;68.97;99661.13;1991078;78;20867;-75
2021/06/03 05:35:22;;;;;;;3.91;0.80;;;;;;;19.76;69.01;99661.84;1992081;81;20214;-75
2021/06/03 05:38:24;;;;;;;1.56;0.88;;;;;;;19.81;68.71;99671.28;1992742;81;20167;-75
2021/06/03 05:41:27;;;;;;;3.16;0.80;;;;;;;19.95;68.56;99665.50;1992449;81;20183;-75
2021/06/03 05:44:30;;;;;;;2.75;0.82;;;;;;;20.20;67.58;99673.28;1992789;81;20195;-75
2021/06/03 05:47:34;;;;;;;1.33;1.08;;;;;;;20.34;66.88;99678.91;1991721;78;20642;-74
2021/06/03 05:50:37;;;;;;;1.65;0.85;;;;;;;20.46;66.62;99674.91;2001323;81;20249;-82
2021/06/03 05:53:40;;;;;;;2.38;1.30;;;;;;;20.79;65.80;99677.97;2003659;81;20542;-82
2021/06/03 05:56:43;;;;;;;4.39;0.89;;;;;;;20.96;64.85;99664.06;2004083;81;20167;-82
2021/06/03 05:59:45;;;;;;;1.11;0.80;;;;;;;21.57;62.82;99672.00;2001842;81;20269;-82
2021/06/03 06:06:10;;;;;;;3.00;0.77;;;;;;;23.36;57.45;99678.31;2005070;81;20251;-82
2021/06/03 06:09:14;;;;;;;3.91;0.84;;;;;;;24.11;55.42;99672.50;2003542;81;20191;-82
2021/06/03 06:12:16;;;;;;;6.09;0.88;;;;;;;24.68;53.14;99683.44;2005284;81;20191;-81
2021/06/03 06:15:19;;;;;;;1.54;0.80;;;;;;;24.58;52.54;99684.03;2008407;78;27030;-77
2021/06/03 06:18:22;;;;;;;2.11;1.09;;;;;;;24.92;52.24;99674.97;2010835;81;20232;-83
2021/06/03 06:21:25;;;;;;;1.92;0.82;;;;;;;25.38;51.25;99677.59;2008040;81;20167;-82
2021/06/03 06:24:27;;;;;;;2.14;0.74;;;;;;;25.68;48.85;99698.84;2006446;81;20175;-82
2021/06/03 06:27:31;;;;;;;1.83;0.90;;;;;;;25.74;48.40;99701.13;2000582;81;20326;-80
2021/06/03 06:30:34;;;;;;;2.15;1.00;;;;;;;25.96;49.50;99692.63;1995020;79;22659;-78
2021/06/03 06:33:37;;;;;;;2.46;0.77;;;;;;;26.29;48.64;99689.66;1992495;81;20228;-79
2021/06/03 06:36:41;;;;;;;2.11;0.81;;;;;;;26.37;47.95;99698.00;1993120;81;20234;-80
2021/06/03 06:39:43;;;;;;;0.80;0.65;;;;;;;26.62;48.00;99698.16;1992482;81;20179;-76
2021/06/03 06:42:53;;;;;;;3.11;0.82;;;;;;;26.81;48.02;99697.78;1991881;81;20238;-76
2021/06/03 06:45:56;;;;;;;1.86;0.77;;;;;;;27.06;47.81;99697.88;1991317;78;21486;-84
2021/06/03 06:48:58;;;;;;;1.34;0.70;;;;;;;27.07;47.16;99694.25;1992403;81;20197;-76
2021/06/03 06:52:02;;;;;;;1.56;0.90;;;;;;;27.39;47.02;99696.53;1991839;81;20232;-80
2021/06/03 06:55:06;;;;;;;1.48;0.70;;;;;;;27.14;45.42;99696.53;1991881;81;20227;-80
2021/06/03 06:58:09;;;;;;;1.30;0.80;;;;;;;27.03;46.35;99702.56;1992377;81;20229;-82
2021/06/03 07:01:12;;;;;;;3.44;0.84;;;;;;;26.55;48.64;99698.63;1991241;78;22657;-75
2021/06/03 07:04:14;;;;;;;1.16;0.79;;;;;;;26.18;48.76;99704.50;1992261;81;20308;-75
2021/06/03 07:07:17;;;;;;;1.92;0.80;;;;;;;25.68;50.33;99710.34;1992574;81;20179;-76
2021/06/03 07:10:21;;;;;;;25.11;1.77;;;;;;;25.54;51.21;99715.59;1992889;81;20199;-76
2021/06/03 07:13:24;;;;;;;1.99;0.99;;;;;;;25.33;50.96;99708.94;1992340;81;20187;-78
2021/06/03 07:16:27;;;;;;;2.41;1.00;;;;;;;24.93;51.81;99716.53;1992411;78;22667;-79
2021/06/03 07:19:31;;;;;;;4.16;0.98;;;;;;;24.73;53.33;99716.84;1992154;81;20317;-77
2021/06/03 07:22:33;;;;;;;1.70;1.10;;;;;;;24.53;53.69;99717.97;1994010;81;20227;-77
2021/06/03 07:25:40;;;;;;;1.85;1.00;;;;;;;24.54;54.46;99717.88;1989183;81;20675;-76
2021/06/03 07:28:43;;;;;;;2.10;0.90;;;;;;;24.59;53.59;99712.31;1992020;81;20183;-75
2021/06/03 07:31:46;;;;;;;3.95;1.00;;;;;;;24.70;54.69;99716.06;1991560;79;23823;-75
2021/06/03 07:34:49;;;;;;;1.75;1.11;;;;;;;24.71;55.19;99715.13;1992339;81;20201;-76
2021/06/03 07:37:52;;;;;;;2.17;0.94;;;;;;;24.64;53.70;99727.06;1992451;81;20201;-75
2021/06/03 07:40:56;;;;;;;0.96;0.89;;;;;;;24.59;53.61;99734.41;1991888;81;20179;-76
2021/06/03 07:43:58;;;;;;;1.21;0.93;;;;;;;24.55;54.28;99734.69;1992414;81;20199;-75
2021/06/03 07:47:01;;;;;;;1.79;1.00;;;;;;;24.22;54.34;99732.91;1992467;79;20187;-75
2021/06/03 07:50:05;;;;;;;6.76;1.24;;;;;;;23.90;56.06;99733.84;1992394;81;20260;-75
2021/06/03 07:53:09;;;;;;;3.65;1.25;;;;;;;23.81;56.86;99729.88;1991346;81;20285;-75
2021/06/03 07:56:11;;;;;;;3.28;1.08;;;;;;;23.71;57.14;99740.13;1991879;81;20581;-74
2021/06/03 07:59:14;;;;;;;3.85;1.04;;;;;;;23.50;57.89;99744.69;1991568;81;20192;-74
2021/06/03 08:02:16;;;;;;;1.46;1.00;;;;;;;23.45;57.91;99744.06;1991053;78;20578;-75
2021/06/03 08:05:21;;;;;;;4.76;1.46;;;;;;;23.50;58.07;99750.00;1992133;81;20219;-75
2021/06/03 08:08:24;;;;;;;3.25;1.23;;;;;;;23.53;58.19;99746.34;1991368;81;20175;-74
2021/06/03 08:11:27;;;;;;;2.39;1.10;;;;;;;23.50;58.74;99754.44;1992185;81;20663;-74
2021/06/03 08:14:29;;;;;;;2.89;1.30;;;;;;;23.42;58.28;99752.19;1992384;81;20684;-76
2021/06/03 08:17:32;;;;;;;3.21;1.00;;;;;;;23.25;58.38;99760.13;1991260;79;21903;-76
2021/06/03 08:20:41;;;;;;;4.07;1.60;;;;;;;23.07;59.35;99761.06;1992146;81;20202;-75
2021/06/03 08:23:44;;;;;;;1.67;1.10;;;;;;;22.98;60.01;99754.44;1991806;81;20194;-76
2021/06/03 08:26:50;;;;;;;4.47;1.25;;;;;;;22.92;60.78;99757.38;1993684;81;20183;-77
2021/06/03 08:29:53;;;;;;;2.06;1.38;;;;;;;23.05;59.92;99757.63;1992993;81;20253;-76
2021/06/03 08:32:56;;;;;;;3.31;1.17;;;;;;;23.20;60.49;99760.38;1990565;78;21234;-75
2021/06/03 08:35:59;;;;;;;4.82;1.26;;;;;;;23.43;59.65;99766.31;1992094;81;20414;-75
2021/06/03 08:39:03;;;;;;;3.50;1.60;;;;;;;23.64;58.81;99757.25;2000390;81;20278;-82
2021/06/03 08:42:07;;;;;;;3.40;1.00;;;;;;;23.85;58.38;99763.22;2002899;81;20201;-79
2021/06/03 08:45:12;;;;;;;2.00;1.23;;;;;;;24.41;57.79;99751.38;2000224;81;20171;-81
2021/06/03 08:48:16;;;;;;;1.94;1.00;;;;;;;24.86;55.11;99755.91;2000254;78;24239;-82
2021/06/03 08:51:18;;;;;;;2.99;1.00;;;;;;;25.09;54.24;99767.03;2001035;81;20199;-82
2021/06/03 08:54:21;;;;;;;3.66;1.00;;;;;;;25.23;54.13;99762.63;2004505;81;20277;-82
2021/06/03 08:57:24;;;;;;;2.44;1.26;;;;;;;25.30;53.60;99765.78;2005206;81;20221;-82
2021/06/03 09:00:26;;;;;;;2.54;1.20;;;;;;;25.28;53.73;99770.31;2006301;81;20265;-81
2021/06/03 09:03:31;;;;;;;3.72;1.26;;;;;;;25.28;54.27;99771.19;2001926;81;20200;-81
2021/06/03 09:06:34;;;;;;;3.33;1.20;;;;;;;25.27;54.22;99769.47;2002292;81;20238;-81
2021/06/03 09:09:37;;;;;;;2.92;1.31;;;;;;;25.09;54.22;99761.72;1998397;81;20187;-82
2021/06/03 09:12:39;;;;;;;4.05;1.67;;;;;;;25.18;55.13;99770.03;1996549;81;20222;-75
2021/06/03 09:15:45;;;;;;;3.15;1.20;;;;;;;25.06;53.36;99760.09;1991577;78;22718;-75
2021/06/03 09:18:55;;;;;;;3.45;1.30;;;;;;;24.98;53.98;99755.22;1993228;81;20211;-75
2021/06/03 09:21:59;;;;;;;1.65;1.52;;;;;;;25.12;54.26;99749.09;1992272;81;20304;-75
2021/06/03 09:25:28;;;;;;;3.78;1.36;;;;;;;25.17;53.72;99755.03;1993098;81;20300;-75
2021/06/03 09:28:33;;;;;;;3.90;1.50;;;;;;;25.26;53.41;99756.28;1992573;81;20179;-74
2021/06/03 09:31:36;;;;;;;3.86;1.36;;;;;;;25.24;53.30;99745.72;1991996;78;20813;-75
2021/06/03 09:34:40;;;;;;;4.01;1.10;;;;;;;25.14;53.73;99749.03;1992853;81;20189;-75
2021/06/03 09:37:44;;;;;;;3.33;1.27;;;;;;;25.09;54.49;99740.47;1992229;81;20528;-75
2021/06/03 09:40:49;;;;;;;4.32;1.84;;;;;;;25.04;54.96;99750.50;1993165;81;20562;-74
2021/06/03 09:44:28;;;;;;;4.46;1.30;;;;;;;25.14;55.42;99749.91;1992536;81;20198;-75
2021/06/03 09:47:38;;;;;;;3.41;1.30;;;;;;;25.08;55.02;99744.91;1992272;79;22531;-74
2021/06/03 09:50:41;;;;;;;2.31;1.33;;;;;;;24.81;54.16;99743.84;1992153;81;20721;-75
2021/06/03 09:53:53;;;;;;;1.90;1.20;;;;;;;24.83;55.16;99741.94;1993432;81;20565;-75
2021/06/03 09:57:05;;;;;;;3.55;1.33;;;;;;;24.79;54.82;99751.91;1993332;81;20637;-76
2021/06/03 10:00:22;;;;;;;1.48;1.05;;;;;;;24.76;54.73;99753.84;1991170;81;20196;-77
2021/06/03 10:03:25;;;;;;;3.35;1.00;;;;;;;24.71;54.34;99748.81;1992238;81;20272;-77
2021/06/03 10:06:27;;;;;;;2.44;1.02;;;;;;;24.67;53.93;99747.28;1991922;81;20237;-75
2021/06/03 10:09:45;;;;;;;2.10;1.10;;;;;;;24.69;55.02;99750.69;1992414;81;20728;-75
2021/06/03 10:12:50;;;;;;;2.44;1.09;;;;;;;24.66;53.92;99746.41;1991807;81;20216;-75
2021/06/03 10:15:54;;;;;;;4.00;1.10;;;;;;;24.75;55.33;99754.78;1990543;79;24538;-74
2021/06/03 10:19:28;;;;;;;2.89;1.31;;;;;;;24.88;53.85;99753.16;1991294;81;20195;-74
2021/06/03 10:22:33;;;;;;;2.94;1.20;;;;;;;24.94;53.49;99748.34;1992077;81;20167;-74
2021/06/03 10:25:37;;;;;;;2.34;1.33;;;;;;;25.00;54.30;99739.22;2000021;81;20739;-81
2021/06/03 10:28:39;;;;;;;6.14;1.60;;;;;;;25.26;55.11;99743.84;1998632;81;20393;-80
2021/06/03 10:31:42;;;;;;;4.20;1.24;;;;;;;25.26;53.87;99743.84;2001285;78;21457;-82
2021/06/03 10:34:45;;;;;;;3.29;1.10;;;;;;;25.13;53.26;99739.31;2004120;81;20542;-82
2021/06/03 10:37:48;;;;;;;3.21;1.10;;;;;;;25.08;52.36;99742.25;2003022;81;20580;-81
2021/06/03 10:40:56;;;;;;;3.36;1.00;;;;;;;25.16;53.65;99740.03;2001650;81;20187;-82
2021/06/03 10:43:59;;;;;;;3.14;1.10;;;;;;;25.39;54.80;99729.81;2004970;81;20324;-82
2021/06/03 10:47:02;;;;;;;2.21;1.01;;;;;;;25.56;53.88;99729.66;2001084;81;22991;-82
2021/06/03 10:53:47;;;;;;;3.41;1.27;;;;;;;25.47;52.32;99731.06;2132294;70;20310;-84
2021/06/03 10:56:57;;;;;;;2.55;1.08;;;;;;;25.39;53.31;99729.81;2033603;80;20170;-83
2021/06/03 11:06:54;;;;;;;1.30;1.01;;;;;;;26.14;52.62;99739.38;2053528;70;20208;-83
2021/06/03 11:09:57;;;;;;;1.55;1.04;;;;;;;26.46;50.84;99730.25;2018653;80;20219;-84
2021/06/03 11:13:11;;;;;;;1.19;0.81;;;;;;;26.45;50.50;99736.53;2015649;80;20201;-84
2021/06/03 11:16:22;;;;;;;1.88;0.80;;;;;;;26.56;50.63;99729.63;2018687;78;23887;-86
2021/06/03 11:19:29;;;;;;;1.81;0.90;;;;;;;26.76;50.19;99732.75;2020672;80;20265;-85
2021/06/03 11:22:32;;;;;;;3.31;0.81;;;;;;;26.77;48.86;99726.44;2018174;80;20229;-84
2021/06/03 11:25:36;;;;;;;0.90;0.77;;;;;;;26.75;49.06;99731.03;2014274;80;21184;-85
2021/06/03 11:28:39;;;;;;;2.53;0.80;;;;;;;26.93;49.10;99726.28;2018627;80;20229;-86
2021/06/03 11:32:08;;;;;;;2.40;0.91;;;;;;;26.97;49.39;99727.78;2014350;80;21442;-87
2021/06/03 11:35:13;;;;;;;1.69;0.90;;;;;;;27.03;49.75;99732.75;2011999;80;20197;-86
2021/06/03 11:38:39;;;;;;;1.04;0.85;;;;;;;27.01;48.83;99731.13;2012959;80;20177;-84
2021/06/03 11:41:42;;;;;;;1.05;0.70;;;;;;;26.85;49.54;99728.59;2013608;80;20276;-73
2021/06/03 11:45:13;;;;;;;2.85;0.84;;;;;;;26.83;49.81;99732.31;2012369;80;20176;-74
2021/06/03 11:48:20;;;;;;;1.52;0.76;;;;;;;26.80;49.08;99726.25;2007062;78;23437;-73
2021/06/03 11:51:23;;;;;;;1.09;0.80;;;;;;;26.94;48.71;99721.81;2007783;80;20256;-73
2021/06/03 11:54:58;;;;;;;1.75;0.80;;;;;;;27.00;49.11;99719.63;2007641;80;20516;-74
2021/06/03 11:58:24;;;;;;;2.76;0.90;;;;;;;26.93;48.92;99728.06;2007182;80;20238;-74
2021/06/03 12:01:29;;;;;;;1.60;0.80;;;;;;;27.01;48.88;99718.66;2010781;77;26308;-74
2021/06/03 12:04:32;;;;;;;1.39;0.70;;;;;;;27.53;48.56;99722.25;2017404;80;20293;-74
2021/06/03 12:07:52;;;;;;;2.26;0.70;;;;;;;27.98;45.21;99708.38;2017398;80;20167;-74
2021/06/03 12:10:55;;;;;;;1.89;1.09;;;;;;;28.24;45.27;99711.00;2016831;80;20320;-73
2021/06/03 12:14:16;;;;;;;2.01;0.90;;;;;;;28.10;44.86;99705.81;2017152;80;20288;-74
2021/06/03 12:17:19;;;;;;;1.48;0.70;;;;;;;27.66;46.63;99708.00;2012567;80;20296;-73
2021/06/03 12:20:23;;;;;;;1.98;0.70;;;;;;;27.61;47.66;99698.56;2015278;80;20658;-73
2021/06/03 12:23:27;;;;;;;0.75;0.70;;;;;;;27.58;48.26;99696.13;2011845;80;20762;-73
2021/06/03 12:26:30;;;;;;;1.10;0.76;;;;;;;27.59;46.68;99685.34;2015583;80;20234;-73
2021/06/03 12:29:34;;;;;;;1.59;0.66;;;;;;;27.93;45.75;99691.00;2012022;80;20184;-73
2021/06/03 12:32:37;;;;;;;2.34;0.76;;;;;;;28.29;47.02;99683.03;2014171;77;20365;-73
2021/06/03 12:35:53;;;;;;;1.92;0.90;;;;;;;28.44;44.38;99680.22;2016868;80;20219;-74
2021/06/03 12:38:58;;;;;;;0.60;0.60;;;;;;;28.44;44.47;99678.38;2016660;80;20929;-73
2021/06/03 12:42:00;;;;;;;1.01;0.76;;;;;;;28.37;46.29;99686.94;2016092;80;20197;-74
2021/06/03 12:45:07;;;;;;;1.80;0.68;;;;;;;28.48;45.08;99674.53;2010257;80;20188;-74
2021/06/03 12:48:13;;;;;;;1.31;0.85;;;;;;;28.13;45.39;99669.06;2006119;78;20213;-73
2021/06/03 12:51:16;;;;;;;1.25;0.70;;;;;;;28.47;47.66;99674.63;2006484;80;20189;-75
2021/06/03 12:54:38;;;;;;;8.48;0.94;;;;;;;28.86;44.77;99657.47;2006013;80;20952;-75
2021/06/03 12:57:41;;;;;;;1.29;0.94;;;;;;;28.82;45.11;99648.81;2005855;80;20189;-73
2021/06/03 13:00:45;;;;;;;1.90;0.70;;;;;;;28.52;44.52;99664.44;2005816;78;20209;-74
2021/06/03 13:03:57;;;;;;;0.80;0.66;;;;;;;28.26;46.06;99667.22;2011254;80;20684;-74
2021/06/03 13:07:00;;;;;;;3.10;0.81;;;;;;;28.11;44.35;99656.78;2011668;80;20319;-74
2021/06/03 13:10:06;;;;;;;1.34;0.60;;;;;;;28.52;46.32;99656.44;2010601;80;20177;-74
2021/06/03 13:13:11;;;;;;;0.81;0.61;;;;;;;29.15;45.15;99655.25;2014981;80;20245;-72
2021/06/03 13:16:21;;;;;;;0.70;0.60;;;;;;;29.42;44.40;99653.09;2008414;78;21529;-75
2021/06/03 13:19:24;;;;;;;1.14;0.60;;;;;;;29.61;42.35;99649.00;2005987;80;20177;-74
2021/06/03 13:22:30;;;;;;;2.00;0.70;;;;;;;29.92;41.79;99645.59;2005819;80;20190;-83
2021/06/03 13:25:40;;;;;;;0.90;0.70;;;;;;;30.26;40.88;99654.47;2006481;80;20751;-78
2021/06/03 13:28:43;;;;;;;2.08;0.60;;;;;;;30.43;40.51;99645.03;2006614;80;20622;-82
2021/06/03 13:31:46;;;;;;;0.93;0.50;;;;;;;30.04;39.64;99643.78;2010036;78;22670;-73
2021/06/03 13:34:50;;;;;;;1.70;0.70;;;;;;;29.41;39.63;99640.69;2011367;80;20381;-74
2021/06/03 13:37:53;;;;;;;1.11;0.59;;;;;;;29.34;41.63;99642.16;2011491;80;20180;-74
2021/06/03 13:41:04;;;;;;;1.80;0.60;;;;;;;29.56;42.59;99636.00;2011135;80;20188;-74
2021/06/03 13:44:09;;;;;;;1.95;0.60;;;;;;;29.86;40.69;99638.06;2011209;80;20189;-74
2021/06/03 13:47:12;;;;;;;3.01;0.60;;;;;;;29.90;40.27;99622.59;2006722;79;22595;-74
2021/06/03 13:50:17;;;;;;;4.16;0.64;;;;;;;29.57;40.69;99626.13;2006263;80;20274;-74
2021/06/03 13:53:29;;;;;;;0.88;0.55;;;;;;;29.33;40.91;99627.06;2005644;80;20334;-74
2021/06/03 13:56:32;;;;;;;2.70;0.64;;;;;;;29.57;41.13;99624.31;2005933;80;20620;-74
2021/06/03 13:59:36;;;;;;;1.66;0.63;;;;;;;29.42;40.82;99621.00;2006461;80;20177;-74
2021/06/03 14:02:39;;;;;;;0.95;0.61;;;;;;;29.31;41.66;99615.66;2010272;78;26023;-74
2021/06/03 14:06:02;;;;;;;0.84;0.60;;;;;;;28.86;41.39;99614.69;2011967;80;20204;-74
2021/06/03 14:09:17;;;;;;;1.17;0.65;;;;;;;29.16;43.75;99609.66;2011479;80;20360;-77
2021/06/03 14:12:27;;;;;;;2.29;0.60;;;;;;;29.14;42.29;99613.44;2011714;80;20275;-77
2021/06/03 14:15:40;;;;;;;2.54;0.60;;;;;;;28.88;42.00;99605.56;2010040;78;20366;-76
2021/06/03 14:18:44;;;;;;;1.31;0.60;;;;;;;28.55;43.49;99617.00;2007200;80;20982;-76
2021/06/03 14:22:10;;;;;;;1.30;0.60;;;;;;;28.33;44.16;99605.34;2002653;80;20692;-77
2021/06/03 14:25:15;;;;;;;3.17;0.74;;;;;;;28.12;44.76;99607.75;2007352;80;20211;-77
2021/06/03 14:28:18;;;;;;;2.66;0.60;;;;;;;27.78;45.45;99606.69;2006787;80;20197;-84
2021/06/03 14:31:21;;;;;;;2.92;0.50;;;;;;;27.60;47.16;99609.66;2007690;78;23014;-85
2021/06/03 14:34:24;;;;;;;2.60;0.68;;;;;;;27.52;47.34;99608.50;2013716;80;20168;-85
2021/06/03 14:37:28;;;;;;;4.03;0.61;;;;;;;27.55;47.37;99610.97;2012085;80;20192;-85
2021/06/03 14:40:38;;;;;;;3.56;0.57;;;;;;;27.64;46.38;99619.19;2012341;80;20270;-84
2021/06/03 14:43:44;;;;;;;2.65;0.51;;;;;;;27.68;46.87;99615.34;2013400;80;20308;-85
2021/06/03 14:46:47;;;;;;;1.29;0.70;;;;;;;27.61;46.56;99614.03;2011862;77;20989;-84
2021/06/03 14:49:51;;;;;;;0.76;0.54;;;;;;;27.50;47.36;99619.31;2012615;80;20176;-86